sensor_id;sensor_type;location;lat;lon;timestamp;pressure;altitude;pressure_sealevel;temperature;humidity
44685;BME280;76140;45.696;8.652;2024-03-02T11:59:38;97763.67;;;5.34;49.05
44685;BME280;76140;45.696;8.652;2024-03-02T12:00:06;97763.75;;;3.40;48.86
44685;BME280;76140;45.696;8.652;2024-03-02T12:02:31;97763.97;;;4.41;47.57
44685;BME280;76140;45.696;8.652;2024-03-02T12:04:57;97758.71;;;4.70;46.71
44685;BME280;76140;45.696;8.652;2024-03-02T12:07:22;97754.58;;;5.85;46.17
44685;BME280;76140;45.696;8.652;2024-03-02T12:09:46;97753.73;;;6.07;45.38
44685;BME280;76140;45.696;8.652;2024-03-02T12:12:12;97752.49;;;6.22;44.81
44685;BME280;76140;45.696;8.652;2024-03-02T12:14:38;97752.96;;;6.39;44.73
44685;BME280;76140;45.696;8.652;2024-03-02T12:17:04;97748.82;;;5.62;45.85
44685;BME280;76140;45.696;8.652;2024-03-02T12:19:30;97748.36;;;5.10;46.54
44685;BME280;76140;45.696;8.652;2024-03-02T12:21:55;97749.02;;;5.25;45.85
44685;BME280;76140;45.696;8.652;2024-03-02T12:24:21;97747.56;;;5.62;45.71
44685;BME280;76140;45.696;8.652;2024-03-02T12:26:46;97747.19;;;5.15;45.46
44685;BME280;76140;45.696;8.652;2024-03-02T12:29:12;97744.94;;;5.15;45.14
44685;BME280;76140;45.696;8.652;2024-03-02T12:31:37;97738.92;;;5.64;44.66
44685;BME280;76140;45.696;8.652;2024-03-02T12:34:10;97738.61;;;5.58;44.62
44685;BME280;76140;45.696;8.652;2024-03-02T12:36:28;97734.08;;;5.53;44.37
44685;BME280;76140;45.696;8.652;2024-03-02T12:38:53;97731.62;;;5.76;44.26
44685;BME280;76140;45.696;8.652;2024-03-02T12:41:18;97726.92;;;5.42;44.70
44685;BME280;76140;45.696;8.652;2024-03-02T12:43:43;97722.81;;;5.34;44.51
44685;BME280;76140;45.696;8.652;2024-03-02T12:46:09;97720.45;;;5.36;44.54
44685;BME280;76140;45.696;8.652;2024-03-02T12:49:13;97721.21;;;5.26;45.30
44685;BME280;76140;45.696;8.652;2024-03-02T12:51:00;97719.17;;;5.07;45.33
44685;BME280;76140;45.696;8.652;2024-03-02T12:53:25;97718.82;;;5.40;44.63
44685;BME280;76140;45.696;8.652;2024-03-02T12:55:50;97715.41;;;5.17;44.53
44685;BME280;76140;45.696;8.652;2024-03-02T12:58:18;97711.31;;;5.35;44.52
44685;BME280;76140;45.696;8.652;2024-03-02T13:00:41;97710.16;;;5.46;44.50
44685;BME280;76140;45.696;8.652;2024-03-02T13:03:06;97714.82;;;5.23;44.66
44685;BME280;76140;45.696;8.652;2024-03-02T13:05:32;97714.02;;;5.23;44.41
44685;BME280;76140;45.696;8.652;2024-03-02T13:07:59;97714.46;;;5.26;44.51
44685;BME280;76140;45.696;8.652;2024-03-02T13:10:23;97717.23;;;5.52;45.20
44685;BME280;76140;45.696;8.652;2024-03-02T13:12:49;97719.11;;;4.93;45.69
44685;BME280;76140;45.696;8.652;2024-03-02T13:15:15;97722.59;;;4.64;45.82
44685;BME280;76140;45.696;8.652;2024-03-02T13:17:40;97716.63;;;4.88;45.48
44685;BME280;76140;45.696;8.652;2024-03-02T13:20:06;97710.19;;;4.68;45.22
44685;BME280;76140;45.696;8.652;2024-03-02T13:22:31;97707.69;;;4.81;45.38
44685;BME280;76140;45.696;8.652;2024-03-02T13:24:57;97708.37;;;4.99;44.99
44685;BME280;76140;45.696;8.652;2024-03-02T13:27:22;97709.93;;;5.51;45.12
44685;BME280;76140;45.696;8.652;2024-03-02T13:29:47;97708.35;;;5.55;44.97
44685;BME280;76140;45.696;8.652;2024-03-02T13:32:12;97706.15;;;5.24;45.01
44685;BME280;76140;45.696;8.652;2024-03-02T13:34:38;97707.65;;;4.87;46.10
44685;BME280;76140;45.696;8.652;2024-03-02T13:37:03;97703.97;;;4.95;45.56
44685;BME280;76140;45.696;8.652;2024-03-02T13:39:28;97706.37;;;4.83;45.46
44685;BME280;76140;45.696;8.652;2024-03-02T13:41:53;97703.46;;;4.70;44.98
44685;BME280;76140;45.696;8.652;2024-03-02T13:44:30;97706.81;;;4.52;45.23
44685;BME280;76140;45.696;8.652;2024-03-02T13:46:49;97708.38;;;4.55;45.42
44685;BME280;76140;45.696;8.652;2024-03-02T13:49:09;97698.99;;;4.85;45.07
44685;BME280;76140;45.696;8.652;2024-03-02T13:51:35;97696.53;;;4.17;46.41
44685;BME280;76140;45.696;8.652;2024-03-02T13:54:01;97702.80;;;4.28;46.47
44685;BME280;76140;45.696;8.652;2024-03-02T13:56:25;97705.27;;;2.90;48.38
44685;BME280;76140;45.696;8.652;2024-03-02T13:58:51;97702.06;;;3.59;47.34
44685;BME280;76140;45.696;8.652;2024-03-02T14:01:16;97701.76;;;4.01;46.65
44685;BME280;76140;45.696;8.652;2024-03-02T14:03:51;97694.16;;;4.42;46.40
44685;BME280;76140;45.696;8.652;2024-03-02T14:06:16;97697.15;;;3.80;46.09
44685;BME280;76140;45.696;8.652;2024-03-02T14:08:42;97696.96;;;4.09;45.91
44685;BME280;76140;45.696;8.652;2024-03-02T14:11:07;97693.87;;;4.44;45.18
44685;BME280;76140;45.696;8.652;2024-03-02T14:13:33;97691.86;;;5.12;44.63
44685;BME280;76140;45.696;8.652;2024-03-02T14:15:59;97691.83;;;4.87;44.53
44685;BME280;76140;45.696;8.652;2024-03-02T14:18:24;97693.64;;;5.36;44.28
44685;BME280;76140;45.696;8.652;2024-03-02T14:20:49;97693.17;;;5.01;44.52
44685;BME280;76140;45.696;8.652;2024-03-02T14:23:16;97694.09;;;5.19;44.13
44685;BME280;76140;45.696;8.652;2024-03-02T14:25:40;97697.02;;;5.18;43.89
44685;BME280;76140;45.696;8.652;2024-03-02T14:28:06;97701.64;;;4.83;43.80
44685;BME280;76140;45.696;8.652;2024-03-02T14:30:31;97698.69;;;5.58;43.79
44685;BME280;76140;45.696;8.652;2024-03-02T14:32:56;97695.94;;;5.68;43.54
44685;BME280;76140;45.696;8.652;2024-03-02T14:35:22;97695.41;;;5.38;43.70
44685;BME280;76140;45.696;8.652;2024-03-02T14:37:47;97696.59;;;5.89;43.34
44685;BME280;76140;45.696;8.652;2024-03-02T14:40:13;97698.41;;;6.11;43.31
44685;BME280;76140;45.696;8.652;2024-03-02T14:42:38;97693.96;;;5.68;43.29
44685;BME280;76140;45.696;8.652;2024-03-02T14:45:04;97687.46;;;5.46;43.77
44685;BME280;76140;45.696;8.652;2024-03-02T14:47:29;97687.96;;;5.37;43.83
44685;BME280;76140;45.696;8.652;2024-03-02T14:49:54;97688.25;;;5.59;43.37
44685;BME280;76140;45.696;8.652;2024-03-02T14:52:19;97689.23;;;5.36;43.38
44685;BME280;76140;45.696;8.652;2024-03-02T14:54:45;97689.99;;;5.94;43.12
44685;BME280;76140;45.696;8.652;2024-03-02T14:57:11;97686.68;;;6.00;43.22
44685;BME280;76140;45.696;8.652;2024-03-02T14:59:36;97687.25;;;6.00;43.07
44685;BME280;76140;45.696;8.652;2024-03-02T15:02:01;97694.16;;;6.16;42.91
44685;BME280;76140;45.696;8.652;2024-03-02T15:04:27;97701.88;;;5.62;43.93
44685;BME280;76140;45.696;8.652;2024-03-02T15:06:52;97699.56;;;5.27;44.05
44685;BME280;76140;45.696;8.652;2024-03-02T15:09:17;97701.71;;;5.31;44.59
44685;BME280;76140;45.696;8.652;2024-03-02T15:11:44;97699.53;;;5.21;44.41
44685;BME280;76140;45.696;8.652;2024-03-02T15:14:08;97691.42;;;5.50;43.75
44685;BME280;76140;45.696;8.652;2024-03-02T15:16:33;97690.33;;;5.64;43.84
44685;BME280;76140;45.696;8.652;2024-03-02T15:18:58;97690.05;;;5.79;43.49
44685;BME280;76140;45.696;8.652;2024-03-02T15:21:23;97686.26;;;6.01;43.39
44685;BME280;76140;45.696;8.652;2024-03-02T15:23:49;97679.56;;;6.02;43.44
44685;BME280;76140;45.696;8.652;2024-03-02T15:26:14;97673.24;;;6.14;43.32
44685;BME280;76140;45.696;8.652;2024-03-02T15:28:39;97673.01;;;6.18;43.20
44685;BME280;76140;45.696;8.652;2024-03-02T15:31:10;97675.66;;;5.88;42.87
44685;BME280;76140;45.696;8.652;2024-03-02T15:33:36;97682.62;;;6.65;42.75
44685;BME280;76140;45.696;8.652;2024-03-02T15:35:56;97681.06;;;6.37;42.94
44685;BME280;76140;45.696;8.652;2024-03-02T15:38:21;97682.72;;;5.96;43.47
44685;BME280;76140;45.696;8.652;2024-03-02T15:40:46;97680.15;;;6.15;43.64
44685;BME280;76140;45.696;8.652;2024-03-02T15:43:12;97670.05;;;6.43;43.52
44685;BME280;76140;45.696;8.652;2024-03-02T15:45:37;97669.38;;;5.99;43.36
44685;BME280;76140;45.696;8.652;2024-03-02T15:48:04;97669.51;;;6.22;43.06
44685;BME280;76140;45.696;8.652;2024-03-02T15:50:29;97667.03;;;6.19;42.68
44685;BME280;76140;45.696;8.652;2024-03-02T15:52:54;97659.47;;;6.60;42.06
44685;BME280;76140;45.696;8.652;2024-03-02T15:55:19;97665.10;;;6.44;41.85
44685;BME280;76140;45.696;8.652;2024-03-02T15:57:45;97666.02;;;6.54;41.63
44685;BME280;76140;45.696;8.652;2024-03-02T16:00:11;97658.00;;;7.13;41.35
44685;BME280;76140;45.696;8.652;2024-03-02T16:02:36;97667.02;;;5.83;42.31
44685;BME280;76140;45.696;8.652;2024-03-02T16:05:01;97672.57;;;6.22;42.28
44685;BME280;76140;45.696;8.652;2024-03-02T16:07:26;97681.05;;;6.66;42.13
44685;BME280;76140;45.696;8.652;2024-03-02T16:09:52;97682.72;;;6.14;42.32
44685;BME280;76140;45.696;8.652;2024-03-02T16:12:18;97677.07;;;6.10;42.27
44685;BME280;76140;45.696;8.652;2024-03-02T16:14:43;97669.18;;;6.29;42.34
44685;BME280;76140;45.696;8.652;2024-03-02T16:17:08;97672.86;;;5.92;42.96
44685;BME280;76140;45.696;8.652;2024-03-02T16:19:33;97675.78;;;5.83;42.86
44685;BME280;76140;45.696;8.652;2024-03-02T16:21:58;97679.06;;;5.78;43.08
44685;BME280;76140;45.696;8.652;2024-03-02T16:24:24;97678.26;;;5.99;43.52
44685;BME280;76140;45.696;8.652;2024-03-02T16:26:50;97680.77;;;5.44;43.34
44685;BME280;76140;45.696;8.652;2024-03-02T16:29:15;97684.50;;;5.49;43.79
44685;BME280;76140;45.696;8.652;2024-03-02T16:31:41;97686.08;;;5.73;43.96
44685;BME280;76140;45.696;8.652;2024-03-02T16:34:06;97684.20;;;5.64;43.73
44685;BME280;76140;45.696;8.652;2024-03-02T16:36:32;97688.04;;;5.43;43.74
44685;BME280;76140;45.696;8.652;2024-03-02T16:38:57;97688.35;;;5.72;43.77
44685;BME280;76140;45.696;8.652;2024-03-02T16:41:23;97689.86;;;5.24;43.79
44685;BME280;76140;45.696;8.652;2024-03-02T16:43:49;97685.75;;;5.11;43.87
44685;BME280;76140;45.696;8.652;2024-03-02T16:46:14;97687.32;;;5.40;43.81
44685;BME280;76140;45.696;8.652;2024-03-02T16:48:39;97684.94;;;5.44;44.41
44685;BME280;76140;45.696;8.652;2024-03-02T16:51:05;97687.50;;;5.19;44.40
44685;BME280;76140;45.696;8.652;2024-03-02T16:53:30;97692.06;;;5.28;44.64
44685;BME280;76140;45.696;8.652;2024-03-02T16:55:59;97693.45;;;5.38;44.30
44685;BME280;76140;45.696;8.652;2024-03-02T16:58:21;97693.61;;;5.06;44.29
44685;BME280;76140;45.696;8.652;2024-03-02T17:00:46;97694.87;;;4.95;44.79
44685;BME280;76140;45.696;8.652;2024-03-02T17:03:11;97694.86;;;5.39;44.39
44685;BME280;76140;45.696;8.652;2024-03-02T17:05:37;97691.68;;;5.57;44.64
44685;BME280;76140;45.696;8.652;2024-03-02T17:08:03;97692.59;;;5.18;45.26
44685;BME280;76140;45.696;8.652;2024-03-02T17:10:28;97695.95;;;5.21;45.38
44685;BME280;76140;45.696;8.652;2024-03-02T17:12:53;97691.14;;;4.70;45.55
44685;BME280;76140;45.696;8.652;2024-03-02T17:15:18;97687.96;;;4.65;45.70
44685;BME280;76140;45.696;8.652;2024-03-02T17:17:44;97687.13;;;4.75;45.82
44685;BME280;76140;45.696;8.652;2024-03-02T17:20:10;97685.79;;;4.75;45.51
44685;BME280;76140;45.696;8.652;2024-03-02T17:22:35;97686.48;;;4.77;45.16
44685;BME280;76140;45.696;8.652;2024-03-02T17:25:01;97687.31;;;4.63;44.90
44685;BME280;76140;45.696;8.652;2024-03-02T17:27:27;97682.72;;;4.84;44.43
44685;BME280;76140;45.696;8.652;2024-03-02T17:29:53;97683.47;;;4.92;44.55
44685;BME280;76140;45.696;8.652;2024-03-02T17:32:19;97681.51;;;4.87;45.07
44685;BME280;76140;45.696;8.652;2024-03-02T17:34:44;97681.92;;;5.04;44.88
44685;BME280;76140;45.696;8.652;2024-03-02T17:37:10;97681.32;;;5.15;44.55
44685;BME280;76140;45.696;8.652;2024-03-02T17:39:36;97679.72;;;4.34;44.99
44685;BME280;76140;45.696;8.652;2024-03-02T17:42:01;97684.90;;;5.05;44.82
44685;BME280;76140;45.696;8.652;2024-03-02T17:44:26;97687.25;;;5.01;44.49
44685;BME280;76140;45.696;8.652;2024-03-02T17:46:51;97689.58;;;5.25;44.29
44685;BME280;76140;45.696;8.652;2024-03-02T17:49:17;97688.83;;;5.33;44.15
44685;BME280;76140;45.696;8.652;2024-03-02T17:51:43;97696.32;;;5.20;44.15
44685;BME280;76140;45.696;8.652;2024-03-02T17:54:08;97700.65;;;5.26;44.63
44685;BME280;76140;45.696;8.652;2024-03-02T17:56:33;97696.18;;;5.00;44.55
44685;BME280;76140;45.696;8.652;2024-03-02T17:58:59;97689.64;;;5.34;44.39
44685;BME280;76140;45.696;8.652;2024-03-02T18:01:25;97686.83;;;5.34;44.35
44685;BME280;76140;45.696;8.652;2024-03-02T18:03:50;97682.74;;;4.12;46.05
44685;BME280;76140;45.696;8.652;2024-03-02T18:06:15;97685.50;;;4.34;45.70
44685;BME280;76140;45.696;8.652;2024-03-02T18:08:40;97686.82;;;3.90;46.15
44685;BME280;76140;45.696;8.652;2024-03-02T18:11:06;97686.70;;;4.27;46.17
44685;BME280;76140;45.696;8.652;2024-03-02T18:13:31;97690.09;;;4.30;46.58
44685;BME280;76140;45.696;8.652;2024-03-02T18:15:57;97692.00;;;4.51;45.47
44685;BME280;76140;45.696;8.652;2024-03-02T18:18:22;97701.73;;;4.68;45.42
44685;BME280;76140;45.696;8.652;2024-03-02T18:20:47;97706.37;;;4.85;45.40
44685;BME280;76140;45.696;8.652;2024-03-02T18:23:12;97704.97;;;4.63;45.17
44685;BME280;76140;45.696;8.652;2024-03-02T18:25:37;97694.34;;;4.35;44.93
44685;BME280;76140;45.696;8.652;2024-03-02T18:28:04;97692.58;;;4.20;44.84
44685;BME280;76140;45.696;8.652;2024-03-02T18:30:29;97692.12;;;3.92;45.62
44685;BME280;76140;45.696;8.652;2024-03-02T18:32:55;97682.05;;;4.41;45.18
44685;BME280;76140;45.696;8.652;2024-03-02T18:35:20;97683.57;;;5.14;44.92
44685;BME280;76140;45.696;8.652;2024-03-02T18:37:45;97684.70;;;4.97;45.03
44685;BME280;76140;45.696;8.652;2024-03-02T18:40:11;97683.53;;;4.25;45.05
44685;BME280;76140;45.696;8.652;2024-03-02T18:42:35;97685.90;;;4.29;44.90
44685;BME280;76140;45.696;8.652;2024-03-02T18:45:00;97685.67;;;4.49;44.72
44685;BME280;76140;45.696;8.652;2024-03-02T18:47:25;97683.83;;;5.07;44.43
44685;BME280;76140;45.696;8.652;2024-03-02T18:49:50;97683.40;;;4.86;44.45
44685;BME280;76140;45.696;8.652;2024-03-02T18:52:16;97683.78;;;5.01;44.40
44685;BME280;76140;45.696;8.652;2024-03-02T18:54:41;97685.34;;;4.77;44.32
44685;BME280;76140;45.696;8.652;2024-03-02T18:57:07;97691.06;;;4.50;44.41
44685;BME280;76140;45.696;8.652;2024-03-02T18:59:32;97693.05;;;4.89;44.45
44685;BME280;76140;45.696;8.652;2024-03-02T19:01:58;97690.44;;;5.05;44.30
44685;BME280;76140;45.696;8.652;2024-03-02T19:04:23;97689.44;;;4.56;44.56
44685;BME280;76140;45.696;8.652;2024-03-02T19:06:48;97687.81;;;4.89;43.93
44685;BME280;76140;45.696;8.652;2024-03-02T19:09:14;97687.90;;;4.93;44.30
44685;BME280;76140;45.696;8.652;2024-03-02T19:11:39;97687.54;;;4.58;43.73
44685;BME280;76140;45.696;8.652;2024-03-02T19:14:04;97692.52;;;4.57;44.61
44685;BME280;76140;45.696;8.652;2024-03-02T19:16:29;97691.43;;;4.51;44.25
44685;BME280;76140;45.696;8.652;2024-03-02T19:18:55;97687.08;;;5.10;44.07
44685;BME280;76140;45.696;8.652;2024-03-02T19:21:20;97687.83;;;3.88;46.05
44685;BME280;76140;45.696;8.652;2024-03-02T19:23:45;97687.96;;;4.18;46.16
44685;BME280;76140;45.696;8.652;2024-03-02T19:26:11;97686.73;;;4.44;45.86
44685;BME280;76140;45.696;8.652;2024-03-02T19:28:36;97690.48;;;4.14;46.93
44685;BME280;76140;45.696;8.652;2024-03-02T19:31:02;97694.13;;;4.18;45.85
44685;BME280;76140;45.696;8.652;2024-03-02T19:33:27;97692.46;;;4.59;46.08
44685;BME280;76140;45.696;8.652;2024-03-02T19:35:52;97691.26;;;4.13;46.98
44685;BME280;76140;45.696;8.652;2024-03-02T19:38:18;97696.58;;;4.22;47.40
44685;BME280;76140;45.696;8.652;2024-03-02T19:40:43;97699.75;;;4.53;46.37
44685;BME280;76140;45.696;8.652;2024-03-02T19:43:08;97701.30;;;4.48;47.13
44685;BME280;76140;45.696;8.652;2024-03-02T19:45:34;97702.67;;;3.35;49.54
44685;BME280;76140;45.696;8.652;2024-03-02T19:47:59;97700.05;;;2.53;52.79
44685;BME280;76140;45.696;8.652;2024-03-02T19:50:24;97691.10;;;3.62;49.88
44685;BME280;76140;45.696;8.652;2024-03-02T19:52:50;97676.61;;;3.39;50.76
44685;BME280;76140;45.696;8.652;2024-03-02T19:55:15;97674.64;;;3.03;53.05
44685;BME280;76140;45.696;8.652;2024-03-02T19:57:41;97681.63;;;3.01;53.88
44685;BME280;76140;45.696;8.652;2024-03-02T20:00:07;97671.46;;;3.12;53.76
44685;BME280;76140;45.696;8.652;2024-03-02T20:02:31;97664.97;;;2.98;52.59
44685;BME280;76140;45.696;8.652;2024-03-02T20:04:57;97667.84;;;2.74;52.35
44685;BME280;76140;45.696;8.652;2024-03-02T20:07:23;97676.29;;;1.69;54.07
44685;BME280;76140;45.696;8.652;2024-03-02T20:09:48;97678.16;;;1.05;55.18
44685;BME280;76140;45.696;8.652;2024-03-02T20:12:14;97670.84;;;1.71;53.99
44685;BME280;76140;45.696;8.652;2024-03-02T20:14:41;97684.20;;;1.21;55.30
44685;BME280;76140;45.696;8.652;2024-03-02T20:17:04;97682.63;;;2.25;53.81
44685;BME280;76140;45.696;8.652;2024-03-02T20:19:38;97681.63;;;2.37;52.49
44685;BME280;76140;45.696;8.652;2024-03-02T20:21:54;97682.28;;;3.66;50.64
44685;BME280;76140;45.696;8.652;2024-03-02T20:24:30;97678.19;;;2.76;50.15
44685;BME280;76140;45.696;8.652;2024-03-02T20:27:01;97672.46;;;3.46;49.28
44685;BME280;76140;45.696;8.652;2024-03-02T20:29:10;97675.55;;;2.35;51.78
44685;BME280;76140;45.696;8.652;2024-03-02T20:31:42;97675.17;;;2.78;52.39
44685;BME280;76140;45.696;8.652;2024-03-02T20:34:04;97678.50;;;2.61;51.68
44685;BME280;76140;45.696;8.652;2024-03-02T20:36:28;97680.71;;;2.67;50.91
44685;BME280;76140;45.696;8.652;2024-03-02T20:38:57;97678.01;;;2.85;51.05
44685;BME280;76140;45.696;8.652;2024-03-02T20:41:21;97680.68;;;-0.56;57.58
44685;BME280;76140;45.696;8.652;2024-03-02T20:43:46;97685.96;;;1.39;56.02
44685;BME280;76140;45.696;8.652;2024-03-02T20:46:36;97675.67;;;-0.38;59.76
44685;BME280;76140;45.696;8.652;2024-03-02T20:48:35;97679.82;;;0.72;58.27
44685;BME280;76140;45.696;8.652;2024-03-02T20:51:01;97676.91;;;0.76;58.57
44685;BME280;76140;45.696;8.652;2024-03-02T20:53:26;97672.54;;;1.33;56.82
44685;BME280;76140;45.696;8.652;2024-03-02T20:55:51;97669.03;;;2.71;53.39
44685;BME280;76140;45.696;8.652;2024-03-02T20:58:19;97684.49;;;1.36;53.60
44685;BME280;76140;45.696;8.652;2024-03-02T21:00:42;97689.72;;;1.86;54.52
44685;BME280;76140;45.696;8.652;2024-03-02T21:03:08;97695.49;;;1.52;55.81
44685;BME280;76140;45.696;8.652;2024-03-02T21:05:32;97684.34;;;2.61;53.01
44685;BME280;76140;45.696;8.652;2024-03-02T21:07:59;97680.20;;;3.26;51.25
44685;BME280;76140;45.696;8.652;2024-03-02T21:10:22;97687.05;;;2.14;54.02
44685;BME280;76140;45.696;8.652;2024-03-02T21:12:49;97694.51;;;0.32;57.86
44685;BME280;76140;45.696;8.652;2024-03-02T21:15:13;97694.71;;;1.96;55.98
44685;BME280;76140;45.696;8.652;2024-03-02T21:17:41;97694.19;;;2.74;54.63
44685;BME280;76140;45.696;8.652;2024-03-02T21:20:07;97687.27;;;0.18;58.78
44685;BME280;76140;45.696;8.652;2024-03-02T21:22:30;97682.40;;;2.14;54.96
44685;BME280;76140;45.696;8.652;2024-03-02T21:24:55;97678.97;;;2.05;54.35
44685;BME280;76140;45.696;8.652;2024-03-02T21:27:40;97674.79;;;2.74;53.02
44685;BME280;76140;45.696;8.652;2024-03-02T21:29:47;97679.17;;;2.26;54.21
44685;BME280;76140;45.696;8.652;2024-03-02T21:32:12;97675.71;;;3.22;52.44
44685;BME280;76140;45.696;8.652;2024-03-02T21:34:37;97679.47;;;2.06;54.24
44685;BME280;76140;45.696;8.652;2024-03-02T21:37:03;97681.12;;;2.83;53.49
44685;BME280;76140;45.696;8.652;2024-03-02T21:39:29;97686.90;;;1.88;56.21
44685;BME280;76140;45.696;8.652;2024-03-02T21:41:55;97684.59;;;1.64;56.53
44685;BME280;76140;45.696;8.652;2024-03-02T21:44:20;97677.14;;;1.78;55.84
44685;BME280;76140;45.696;8.652;2024-03-02T21:46:46;97679.19;;;1.94;56.53
44685;BME280;76140;45.696;8.652;2024-03-02T21:49:17;97673.77;;;2.48;54.05
44685;BME280;76140;45.696;8.652;2024-03-02T21:51:56;97675.01;;;3.22;51.63
44685;BME280;76140;45.696;8.652;2024-03-02T21:54:01;97667.11;;;3.36;52.11
44685;BME280;76140;45.696;8.652;2024-03-02T21:56:27;97670.22;;;2.99;51.47
44685;BME280;76140;45.696;8.652;2024-03-02T21:58:58;97675.42;;;3.48;51.26
44685;BME280;76140;45.696;8.652;2024-03-02T22:01:23;97672.55;;;3.28;51.37
44685;BME280;76140;45.696;8.652;2024-03-02T22:03:47;97678.94;;;2.86;54.52
44685;BME280;76140;45.696;8.652;2024-03-02T22:06:08;97670.88;;;2.29;55.43
44685;BME280;76140;45.696;8.652;2024-03-02T22:08:51;97672.56;;;-0.64;57.79
44685;BME280;76140;45.696;8.652;2024-03-02T22:10:59;97663.98;;;1.96;55.18
44685;BME280;76140;45.696;8.652;2024-03-02T22:13:25;97659.09;;;2.84;53.63
44685;BME280;76140;45.696;8.652;2024-03-02T22:15:55;97665.16;;;1.46;56.45
44685;BME280;76140;45.696;8.652;2024-03-02T22:18:16;97666.85;;;0.84;57.71
44685;BME280;76140;45.696;8.652;2024-03-02T22:20:42;97665.25;;;1.02;57.68
44685;BME280;76140;45.696;8.652;2024-03-02T22:23:08;97669.42;;;0.54;58.81
44685;BME280;76140;45.696;8.652;2024-03-02T22:25:37;97670.52;;;1.57;57.95
44685;BME280;76140;45.696;8.652;2024-03-02T22:27:57;97663.69;;;0.74;57.85
44685;BME280;76140;45.696;8.652;2024-03-02T22:30:23;97668.48;;;1.87;55.13
44685;BME280;76140;45.696;8.652;2024-03-02T22:33:03;97673.29;;;1.25;55.37
44685;BME280;76140;45.696;8.652;2024-03-02T22:35:14;97668.66;;;0.32;60.95
44685;BME280;76140;45.696;8.652;2024-03-02T22:37:42;97664.84;;;0.32;61.30
44685;BME280;76140;45.696;8.652;2024-03-02T22:40:11;97676.71;;;0.19;62.81
44685;BME280;76140;45.696;8.652;2024-03-02T22:42:30;97673.81;;;0.88;58.21
44685;BME280;76140;45.696;8.652;2024-03-02T22:44:56;97673.83;;;1.18;56.52
44685;BME280;76140;45.696;8.652;2024-03-02T22:47:22;97678.07;;;1.00;55.40
44685;BME280;76140;45.696;8.652;2024-03-02T22:49:48;97668.85;;;0.57;57.53
44685;BME280;76140;45.696;8.652;2024-03-02T22:52:12;97666.29;;;0.72;60.83
44685;BME280;76140;45.696;8.652;2024-03-02T22:54:54;97663.27;;;0.23;60.33
44685;BME280;76140;45.696;8.652;2024-03-02T22:57:10;97656.48;;;0.32;58.31
44685;BME280;76140;45.696;8.652;2024-03-02T22:59:47;97662.27;;;0.44;59.78
44685;BME280;76140;45.696;8.652;2024-03-02T23:01:52;97666.20;;;-1.47;63.65
44685;BME280;76140;45.696;8.652;2024-03-02T23:04:19;97660.01;;;1.15;57.25
44685;BME280;76140;45.696;8.652;2024-03-02T23:06:44;97671.03;;;2.03;55.46
44685;BME280;76140;45.696;8.652;2024-03-02T23:09:09;97667.17;;;1.80;54.14
44685;BME280;76140;45.696;8.652;2024-03-02T23:11:37;97667.75;;;1.81;55.52
44685;BME280;76140;45.696;8.652;2024-03-02T23:14:00;97670.66;;;-0.38;59.81
44685;BME280;76140;45.696;8.652;2024-03-02T23:16:26;97660.04;;;1.42;56.23
44685;BME280;76140;45.696;8.652;2024-03-02T23:18:51;97665.64;;;1.41;56.31
44685;BME280;76140;45.696;8.652;2024-03-02T23:21:21;97652.74;;;0.90;58.59
44685;BME280;76140;45.696;8.652;2024-03-02T23:23:42;97651.18;;;1.14;57.08
44685;BME280;76140;45.696;8.652;2024-03-02T23:26:08;97645.40;;;1.20;56.35
44685;BME280;76140;45.696;8.652;2024-03-02T23:28:36;97656.06;;;0.53;58.02
44685;BME280;76140;45.696;8.652;2024-03-02T23:32:12;97660.01;;;0.79;58.99
44685;BME280;76140;45.696;8.652;2024-03-02T23:34:23;97659.03;;;-0.93;58.80
44685;BME280;76140;45.696;8.652;2024-03-02T23:38:40;97653.51;;;0.05;60.18
44685;BME280;76140;45.696;8.652;2024-03-02T23:39:12;97656.52;;;0.34;58.92
44685;BME280;76140;45.696;8.652;2024-03-02T23:41:39;97657.15;;;-2.09;60.30
44685;BME280;76140;45.696;8.652;2024-03-02T23:44:05;97646.78;;;0.59;57.00
44685;BME280;76140;45.696;8.652;2024-03-02T23:46:29;97644.51;;;1.44;56.60
44685;BME280;76140;45.696;8.652;2024-03-02T23:49:04;97643.13;;;0.01;57.52
44685;BME280;76140;45.696;8.652;2024-03-02T23:51:19;97649.44;;;0.44;57.18
44685;BME280;76140;45.696;8.652;2024-03-02T23:53:45;97648.77;;;0.30;57.31
44685;BME280;76140;45.696;8.652;2024-03-02T23:56:50;97647.07;;;1.21;57.42
44685;BME280;76140;45.696;8.652;2024-03-02T23:59:03;97647.34;;;1.18;56.24
